Marshes Siding, Kentucky
Current Conditions -  °F | °C
As of 11:56 AM on Saturday 25 Oct 2014 (Local Time) from KEKQ Reporting Station
Broken Clouds Broken Clouds  
Wind Chill: 65°   Ceiling: 4200
Heat Index: 65°   Visibility: 8mi
Dew Point: 53°   Wind: 8mph
Humidity: 65%   Direction: 200°SSW
Pressure: 30.09"   Gusts: NA
Location:  36.74°N, 84.48°W
Report Text: KEKQ 251556Z AUTO 20007KT 8SM BKN042 18/12 A3009 RMK AO2 T01830116 SLP196
Loading
Personal Weather Stations






























Interactive Weather Map
Tropical Storm Tracking
New forecast layout! Learn more

10-Day Weather Forecast

Advertisements
Track Severe Weather on mobile